Time;durP1;ratioP1;P1;durP2;ratioP2;P2;SDS_P1;SDS_P2;PMS_P1;PMS_P2;Temp;Humidity;BMP_temperature;BMP_pressure;BME280_temperature;BME280_humidity;BME280_pressure;Samples;Min_cycle;Max_cycle;Signal;HPM_P1;HPM_P2
2021/12/26 00:00:11;;;;;;;2.17;1.97;;;1.50;99.90;;;;;;5046018;28;20460;-49
2021/12/26 00:02:40;;;;;;;3.17;1.60;;;1.40;99.90;;;;;;5051177;28;20500;-51
2021/12/26 00:05:08;;;;;;;2.10;1.43;;;1.30;99.90;;;;;;5050614;28;20530;-50
2021/12/26 00:07:36;;;;;;;1.40;1.30;;;1.30;99.90;;;;;;5050219;28;20846;-49
2021/12/26 00:10:04;;;;;;;1.50;1.40;;;1.30;99.90;;;;;;5053934;28;20566;-49
2021/12/26 00:12:31;;;;;;;1.70;1.10;;;1.30;99.90;;;;;;5047912;28;20548;-54
2021/12/26 00:14:58;;;;;;;4.30;2.40;;;1.30;99.90;;;;;;5051869;28;20484;-49
2021/12/26 00:17:25;;;;;;;2.80;2.60;;;1.30;99.90;;;;;;5047119;28;20571;-50
2021/12/26 00:19:53;;;;;;;2.83;2.37;;;1.20;99.90;;;;;;5046648;28;20544;-50
2021/12/26 00:22:20;;;;;;;2.43;2.30;;;1.20;99.90;;;;;;5044160;28;20548;-53
2021/12/26 00:24:47;;;;;;;5.40;3.47;;;1.30;99.90;;;;;;5050641;28;20526;-52
2021/12/26 00:27:16;;;;;;;1.93;1.80;;;1.30;99.90;;;;;;5043868;28;20481;-51
2021/12/26 00:29:43;;;;;;;3.00;2.03;;;1.20;99.90;;;;;;5047266;28;20533;-50
2021/12/26 00:32:10;;;;;;;3.40;2.63;;;1.10;99.90;;;;;;5052802;28;20579;-49
2021/12/26 00:34:37;;;;;;;4.27;2.50;;;1.10;99.90;;;;;;5043264;28;20493;-51
2021/12/26 00:37:06;;;;;;;2.47;2.27;;;1.20;99.90;;;;;;5042827;28;20996;-51
2021/12/26 00:39:34;;;;;;;3.00;2.33;;;1.30;99.90;;;;;;5047617;28;20522;-50
2021/12/26 00:42:01;;;;;;;2.63;2.30;;;1.40;99.90;;;;;;5049469;28;20548;-52
2021/12/26 00:44:28;;;;;;;3.80;2.47;;;1.40;99.90;;;;;;5050052;28;20887;-51
2021/12/26 00:46:55;;;;;;;3.77;1.97;;;1.50;99.90;;;;;;5053632;28;20514;-50
2021/12/26 00:49:23;;;;;;;2.40;2.17;;;1.50;99.90;;;;;;5046397;28;20490;-51
2021/12/26 00:51:51;;;;;;;2.23;1.80;;;1.60;99.90;;;;;;5056463;28;20558;-51
2021/12/26 00:54:20;;;;;;;2.50;1.80;;;1.60;99.90;;;;;;5045976;28;20532;-51
2021/12/26 00:56:47;;;;;;;2.33;2.13;;;1.70;99.90;;;;;;5050282;28;20865;-51
2021/12/26 00:59:14;;;;;;;1.63;1.53;;;1.70;99.90;;;;;;5049819;28;20548;-51
2021/12/26 01:01:41;;;;;;;2.00;1.80;;;1.80;99.90;;;;;;5047775;28;21038;-50
2021/12/26 01:04:08;;;;;;;2.00;1.70;;;1.70;99.90;;;;;;5049300;28;20503;-51
2021/12/26 01:06:36;;;;;;;2.17;1.53;;;1.70;99.90;;;;;;5064858;28;20475;-50
2021/12/26 01:09:06;;;;;;;3.50;2.80;;;1.80;99.90;;;;;;5053814;28;20520;-51
2021/12/26 01:11:37;;;;;;;4.43;4.03;;;1.80;99.90;;;;;;5058081;28;20465;-49
2021/12/26 01:14:08;;;;;;;6.10;3.97;;;1.80;99.90;;;;;;5054519;28;20440;-49
2021/12/26 01:16:37;;;;;;;2.70;2.00;;;1.40;99.90;;;;;;5048360;28;20485;-50
2021/12/26 01:19:10;;;;;;;2.20;1.77;;;1.20;99.90;;;;;;5047924;28;20441;-49
2021/12/26 01:21:38;;;;;;;1.40;1.30;;;1.30;99.90;;;;;;5058574;28;20484;-50
2021/12/26 01:24:07;;;;;;;2.43;1.53;;;1.40;99.90;;;;;;5054405;28;20482;-51
2021/12/26 01:26:36;;;;;;;4.40;4.00;;;1.50;99.90;;;;;;5057733;28;20481;-49
2021/12/26 01:29:05;;;;;;;5.07;4.57;;;1.60;99.90;;;;;;5047834;28;20528;-49
2021/12/26 01:31:32;;;;;;;3.60;3.30;;;1.60;99.90;;;;;;5049145;28;20921;-49
2021/12/26 01:34:06;;;;;;;4.10;3.70;;;1.70;99.90;;;;;;5057058;28;20511;-49
2021/12/26 01:36:35;;;;;;;3.20;3.00;;;1.70;99.90;;;;;;5054448;28;20875;-49
2021/12/26 01:39:07;;;;;;;3.60;2.93;;;1.70;99.90;;;;;;5051721;28;20928;-49
2021/12/26 01:41:40;;;;;;;1.93;1.70;;;1.80;99.90;;;;;;5058541;28;20469;-50
2021/12/26 01:44:10;;;;;;;1.47;1.27;;;1.80;99.90;;;;;;5060576;28;20843;-51
2021/12/26 01:46:38;;;;;;;1.57;1.43;;;1.80;99.90;;;;;;5053024;28;20508;-50
2021/12/26 01:49:08;;;;;;;1.90;1.00;;;1.70;99.90;;;;;;5056776;28;20528;-49
2021/12/26 01:51:36;;;;;;;1.63;1.30;;;1.80;99.90;;;;;;5057378;28;20503;-50
2021/12/26 01:54:07;;;;;;;1.73;1.40;;;1.80;99.90;;;;;;5050076;28;20532;-50
2021/12/26 01:56:37;;;;;;;3.30;1.70;;;1.80;99.90;;;;;;5044523;28;20453;-51
2021/12/26 01:59:05;;;;;;;1.47;1.23;;;1.80;99.90;;;;;;5054551;28;20472;-49
2021/12/26 02:01:33;;;;;;;2.00;0.93;;;1.70;99.90;;;;;;5048968;28;20555;-50
2021/12/26 02:04:01;;;;;;;1.37;1.23;;;1.70;99.90;;;;;;5051574;28;20656;-50
2021/12/26 02:06:28;;;;;;;2.03;1.43;;;1.80;99.90;;;;;;5055220;28;20488;-50
2021/12/26 02:08:55;;;;;;;1.60;1.50;;;1.80;99.90;;;;;;5048280;28;20529;-49
2021/12/26 02:11:22;;;;;;;1.80;1.37;;;1.80;99.90;;;;;;5056990;28;20508;-50
2021/12/26 02:13:51;;;;;;;1.47;1.30;;;1.70;99.90;;;;;;5054690;28;20488;-50
2021/12/26 02:16:18;;;;;;;1.83;1.07;;;1.80;99.90;;;;;;5051343;28;20469;-49
2021/12/26 02:18:45;;;;;;;1.83;1.27;;;1.80;99.90;;;;;;5049995;28;20553;-50
2021/12/26 02:21:25;;;;;;;2.10;1.50;;;1.70;99.90;;;;;;5049345;28;20576;-50
2021/12/26 02:23:58;;;;;;;1.70;1.60;;;1.70;99.90;;;;;;5049102;28;21057;-49
2021/12/26 02:29:10;;;;;;;2.00;1.80;;;1.90;99.90;;;;;;5058409;28;20522;-50
2021/12/26 02:31:37;;;;;;;1.07;0.90;;;1.90;99.90;;;;;;5048146;28;20561;-52
2021/12/26 02:34:04;;;;;;;1.97;1.50;;;2.00;99.90;;;;;;5054899;28;20482;-50
2021/12/26 02:36:33;;;;;;;1.30;1.03;;;2.00;99.90;;;;;;5054848;28;20475;-50
2021/12/26 02:39:00;;;;;;;1.80;1.10;;;2.10;99.90;;;;;;5056690;28;20559;-51
2021/12/26 02:41:27;;;;;;;2.77;1.60;;;2.00;99.90;;;;;;5060247;28;20475;-47
2021/12/26 02:43:54;;;;;;;2.57;1.40;;;2.10;99.90;;;;;;5064266;28;20476;-51
2021/12/26 02:46:21;;;;;;;2.50;1.70;;;1.90;99.90;;;;;;5051414;28;20541;-50
2021/12/26 02:48:48;;;;;;;2.33;1.50;;;1.70;99.90;;;;;;5064133;28;20503;-50
2021/12/26 02:51:15;;;;;;;2.50;1.80;;;1.50;99.90;;;;;;5055941;28;20488;-50
2021/12/26 02:53:43;;;;;;;2.27;1.80;;;1.40;99.90;;;;;;5053364;28;20530;-50
2021/12/26 02:56:10;;;;;;;1.93;1.70;;;1.30;99.90;;;;;;5054825;28;20485;-50
2021/12/26 02:58:37;;;;;;;1.50;1.40;;;1.30;99.90;;;;;;5059584;28;20579;-52
2021/12/26 03:01:08;;;;;;;2.43;1.50;;;1.30;99.90;;;;;;5051424;28;20465;-50
2021/12/26 03:03:35;;;;;;;2.93;2.73;;;1.30;99.90;;;;;;5061368;28;20460;-52
2021/12/26 03:06:08;;;;;;;3.20;2.20;;;1.30;99.90;;;;;;5051667;28;20509;-51
2021/12/26 03:08:35;;;;;;;4.03;3.20;;;1.40;99.90;;;;;;5058295;28;20929;-50
2021/12/26 03:11:04;;;;;;;7.50;3.13;;;1.50;99.90;;;;;;5057534;28;20508;-50
2021/12/26 03:13:31;;;;;;;4.00;3.00;;;1.50;99.90;;;;;;5052066;28;20483;-50
2021/12/26 03:15:58;;;;;;;2.73;2.10;;;1.50;99.90;;;;;;5057552;28;20442;-50
2021/12/26 03:18:26;;;;;;;2.33;2.13;;;1.20;99.90;;;;;;5057851;28;20512;-50
2021/12/26 03:20:53;;;;;;;2.00;1.80;;;1.00;99.90;;;;;;5049254;28;20475;-50
2021/12/26 03:23:25;;;;;;;2.67;2.47;;;1.00;99.90;;;;;;5059689;28;20482;-50
2021/12/26 03:25:55;;;;;;;1.77;1.67;;;1.00;99.90;;;;;;5052757;28;20514;-50
2021/12/26 03:28:24;;;;;;;1.90;1.70;;;1.20;99.90;;;;;;5059945;28;20707;-50
2021/12/26 03:30:52;;;;;;;3.00;2.07;;;1.30;99.90;;;;;;5040397;28;21000;-49
2021/12/26 03:33:20;;;;;;;2.90;1.50;;;1.40;99.90;;;;;;5063007;28;20557;-51
2021/12/26 03:35:47;;;;;;;1.77;1.30;;;1.40;99.90;;;;;;5050456;28;20531;-50
2021/12/26 03:38:16;;;;;;;1.50;1.40;;;1.60;99.90;;;;;;5061967;28;20560;-49
2021/12/26 03:40:44;;;;;;;1.43;1.33;;;1.60;99.90;;;;;;5057809;28;20986;-51
2021/12/26 03:43:12;;;;;;;3.60;3.30;;;1.70;99.90;;;;;;5054824;28;20480;-50
2021/12/26 03:45:42;;;;;;;3.80;3.40;;;1.70;99.90;;;;;;5059862;28;20481;-49
2021/12/26 03:48:09;;;;;;;4.20;3.80;;;1.70;99.90;;;;;;5064569;28;20528;-49
2021/12/26 03:50:39;;;;;;;3.73;3.40;;;1.40;99.90;;;;;;5049480;28;20458;-52
2021/12/26 03:53:06;;;;;;;4.93;3.70;;;1.40;99.90;;;;;;5054882;28;20993;-49
2021/12/26 03:55:33;;;;;;;2.87;2.67;;;1.10;99.90;;;;;;5061973;28;20535;-50
2021/12/26 03:58:00;;;;;;;2.80;1.80;;;1.00;99.90;;;;;;5052648;28;20535;-53
2021/12/26 04:00:28;;;;;;;3.60;1.73;;;1.00;99.90;;;;;;5063483;28;20547;-50
2021/12/26 04:02:57;;;;;;;1.53;1.40;;;0.90;99.90;;;;;;5050925;28;20496;-50
2021/12/26 04:05:25;;;;;;;2.90;1.40;;;0.90;99.90;;;;;;5051584;28;20484;-50
2021/12/26 04:07:52;;;;;;;1.30;1.03;;;1.00;99.90;;;;;;5051197;28;20879;-50
2021/12/26 04:10:22;;;;;;;1.53;1.43;;;1.10;99.90;;;;;;5052409;28;20531;-50
2021/12/26 04:12:52;;;;;;;4.40;2.67;;;1.20;99.90;;;;;;5048358;28;20564;-50
2021/12/26 04:15:22;;;;;;;4.57;3.43;;;1.30;99.90;;;;;;5057069;28;20658;-50
2021/12/26 04:17:49;;;;;;;2.83;2.60;;;1.40;99.90;;;;;;5054785;28;20911;-50
2021/12/26 04:20:17;;;;;;;2.40;2.20;;;1.40;99.90;;;;;;5055870;28;20909;-52
2021/12/26 04:22:44;;;;;;;2.47;2.27;;;1.30;99.90;;;;;;5054773;28;20500;-52
2021/12/26 04:25:11;;;;;;;3.93;3.53;;;1.30;99.90;;;;;;5056037;28;20891;-50
2021/12/26 04:27:39;;;;;;;3.47;3.17;;;1.30;99.90;;;;;;5053059;28;20483;-50
2021/12/26 04:30:08;;;;;;;4.60;2.90;;;1.40;99.90;;;;;;5049734;28;20485;-50
2021/12/26 04:32:35;;;;;;;2.40;2.20;;;1.40;99.90;;;;;;5058582;28;20559;-51
2021/12/26 04:35:03;;;;;;;2.67;2.40;;;1.40;99.90;;;;;;5051387;28;20532;-51
2021/12/26 04:37:31;;;;;;;2.60;1.90;;;1.40;99.90;;;;;;5061053;28;20476;-51
2021/12/26 04:39:58;;;;;;;1.53;1.17;;;1.50;99.90;;;;;;5051031;28;20587;-50
2021/12/26 04:42:25;;;;;;;1.70;1.20;;;1.30;99.90;;;;;;5050091;28;20512;-50
2021/12/26 04:44:53;;;;;;;2.57;2.37;;;1.40;99.90;;;;;;5049177;28;20850;-50
2021/12/26 04:47:20;;;;;;;2.57;2.37;;;1.50;99.90;;;;;;5049708;28;20839;-53
2021/12/26 04:49:47;;;;;;;1.70;1.60;;;1.50;99.90;;;;;;5059331;28;20471;-50
2021/12/26 04:52:14;;;;;;;1.70;1.50;;;1.40;99.90;;;;;;5055595;28;20491;-52
2021/12/26 04:54:43;;;;;;;1.47;1.13;;;1.30;99.90;;;;;;5049559;28;20449;-51
2021/12/26 04:57:10;;;;;;;2.07;1.30;;;1.30;99.90;;;;;;5055390;28;20477;-50
2021/12/26 04:59:37;;;;;;;1.20;0.90;;;1.30;99.90;;;;;;5055416;28;20509;-51
2021/12/26 05:02:04;;;;;;;2.30;1.80;;;1.30;99.90;;;;;;5049769;28;20513;-50
2021/12/26 05:04:31;;;;;;;1.37;1.10;;;1.30;99.90;;;;;;5058374;28;20506;-49
2021/12/26 05:06:58;;;;;;;1.00;0.97;;;1.30;99.90;;;;;;5062211;28;20451;-52
2021/12/26 05:09:25;;;;;;;1.43;1.10;;;1.40;99.90;;;;;;5053468;28;20481;-52
2021/12/26 05:11:57;;;;;;;1.50;1.20;;;1.40;99.90;;;;;;5050259;28;20499;-50
2021/12/26 05:14:24;;;;;;;1.10;1.00;;;1.40;99.90;;;;;;5059295;28;20534;-51
2021/12/26 05:16:51;;;;;;;1.17;1.07;;;1.40;99.90;;;;;;5050364;28;20480;-52
2021/12/26 05:19:18;;;;;;;1.23;0.90;;;1.40;99.90;;;;;;5054770;28;20515;-51
2021/12/26 05:21:45;;;;;;;3.07;0.93;;;1.30;99.90;;;;;;5056401;28;20799;-49
2021/12/26 05:24:12;;;;;;;2.00;1.17;;;1.30;99.90;;;;;;5054115;28;20489;-51
2021/12/26 05:26:39;;;;;;;2.30;0.80;;;1.30;99.90;;;;;;5061893;28;20921;-51
2021/12/26 05:29:07;;;;;;;2.50;1.50;;;1.20;99.90;;;;;;5051667;28;20472;-53
2021/12/26 05:31:34;;;;;;;1.80;1.10;;;1.20;99.90;;;;;;5052782;28;20579;-49
2021/12/26 05:34:01;;;;;;;2.50;2.20;;;1.20;99.90;;;;;;5062761;28;20888;-50
2021/12/26 05:36:28;;;;;;;4.00;1.63;;;1.20;99.90;;;;;;5050091;28;21006;-50
2021/12/26 05:38:56;;;;;;;1.40;1.30;;;1.20;99.90;;;;;;5059463;28;20560;-50
2021/12/26 05:41:23;;;;;;;1.80;1.30;;;1.10;99.90;;;;;;5058541;28;20487;-52
2021/12/26 05:43:50;;;;;;;1.50;1.40;;;1.00;99.90;;;;;;5049807;28;20543;-48
2021/12/26 05:46:18;;;;;;;2.23;1.50;;;0.90;99.90;;;;;;5058280;28;20479;-50
2021/12/26 05:48:45;;;;;;;3.27;1.43;;;0.80;99.90;;;;;;5060578;28;20467;-49
2021/12/26 05:51:12;;;;;;;2.30;1.67;;;0.90;99.90;;;;;;5047129;28;20558;-50
2021/12/26 05:53:39;;;;;;;3.10;2.80;;;1.00;99.90;;;;;;5057327;28;20597;-49
2021/12/26 05:56:06;;;;;;;2.70;2.50;;;1.10;99.90;;;;;;5063628;28;20522;-52
2021/12/26 05:58:33;;;;;;;2.13;1.70;;;1.10;99.90;;;;;;5052386;28;20596;-51
2021/12/26 06:01:00;;;;;;;4.07;2.60;;;1.20;99.90;;;;;;5058413;28;20500;-50
2021/12/26 06:03:28;;;;;;;2.70;1.83;;;1.10;99.90;;;;;;5062722;28;20475;-50
2021/12/26 06:05:55;;;;;;;1.93;1.23;;;1.00;99.90;;;;;;5051732;28;20526;-50
2021/12/26 06:08:22;;;;;;;1.50;1.40;;;1.00;99.90;;;;;;5064318;28;20567;-53
2021/12/26 06:10:49;;;;;;;1.40;1.23;;;0.90;99.90;;;;;;5063971;28;20542;-51
2021/12/26 06:13:16;;;;;;;2.03;1.87;;;1.10;99.90;;;;;;5054820;28;20559;-50
2021/12/26 06:15:43;;;;;;;2.03;1.80;;;1.10;99.90;;;;;;5068442;28;20480;-51
2021/12/26 06:18:10;;;;;;;1.60;1.50;;;1.20;99.90;;;;;;5060291;28;20482;-50
2021/12/26 06:20:38;;;;;;;1.73;1.60;;;1.20;99.90;;;;;;5057436;28;20575;-49
2021/12/26 06:23:05;;;;;;;1.97;1.70;;;1.30;99.90;;;;;;5059461;28;20968;-50
2021/12/26 06:25:32;;;;;;;2.27;1.87;;;1.30;99.90;;;;;;5060938;28;20493;-51
2021/12/26 06:27:59;;;;;;;2.50;1.70;;;1.30;99.90;;;;;;5059822;28;20481;-50
2021/12/26 06:30:26;;;;;;;2.13;2.03;;;1.30;99.90;;;;;;5064077;28;20464;-53
2021/12/26 06:32:53;;;;;;;1.77;1.67;;;1.30;99.90;;;;;;5054115;28;20488;-50
2021/12/26 06:35:20;;;;;;;1.97;1.87;;;1.30;99.90;;;;;;5055346;28;20495;-53
2021/12/26 06:37:48;;;;;;;2.10;1.80;;;1.30;99.90;;;;;;5058176;28;20491;-50
2021/12/26 06:40:15;;;;;;;2.30;2.10;;;1.30;99.90;;;;;;5052228;28;20487;-51
2021/12/26 06:42:44;;;;;;;2.03;1.40;;;1.30;99.90;;;;;;5056647;28;20933;-53
2021/12/26 06:45:15;;;;;;;2.50;1.60;;;1.40;99.90;;;;;;5051460;28;20480;-50
2021/12/26 06:47:46;;;;;;;1.80;1.70;;;1.40;99.90;;;;;;5050624;28;20952;-51
2021/12/26 06:50:13;;;;;;;10.97;6.37;;;1.40;99.90;;;;;;5044217;28;20503;-50
2021/12/26 06:52:40;;;;;;;5.77;5.27;;;1.40;99.90;;;;;;5058148;28;20498;-52
2021/12/26 06:55:10;;;;;;;5.80;4.23;;;1.50;99.90;;;;;;5052859;28;20473;-51
2021/12/26 06:57:37;;;;;;;13.10;8.53;;;1.50;99.90;;;;;;5053464;28;20456;-49
2021/12/26 07:00:06;;;;;;;7.90;6.10;;;1.50;99.90;;;;;;5054691;28;20881;-48
2021/12/26 07:02:33;;;;;;;3.10;2.77;;;1.40;99.90;;;;;;5053327;28;20551;-50
2021/12/26 07:05:00;;;;;;;3.80;3.10;;;1.40;99.90;;;;;;5059740;28;20983;-51
2021/12/26 07:07:26;;;;;;;3.00;2.10;;;1.50;99.90;;;;;;5053169;28;20567;-49
2021/12/26 07:09:53;;;;;;;2.03;1.70;;;1.50;99.90;;;;;;5055170;28;20524;-50
2021/12/26 07:12:22;;;;;;;1.33;1.23;;;1.50;99.90;;;;;;5060765;28;20500;-52
2021/12/26 07:14:49;;;;;;;24.33;13.87;;;1.50;99.90;;;;;;5064315;28;20519;-50
2021/12/26 07:17:16;;;;;;;12.80;8.67;;;1.60;99.90;;;;;;5056090;28;20892;-50
2021/12/26 07:19:43;;;;;;;7.87;5.70;;;1.60;99.90;;;;;;5062692;28;20564;-51
2021/12/26 07:22:09;;;;;;;6.17;4.00;;;1.60;99.90;;;;;;5049085;28;20494;-49
2021/12/26 07:24:36;;;;;;;2.80;2.33;;;1.60;99.90;;;;;;5050421;28;20496;-50
2021/12/26 07:27:05;;;;;;;3.33;2.33;;;1.60;99.90;;;;;;5045695;28;20477;-50
2021/12/26 07:29:33;;;;;;;2.17;1.97;;;1.70;99.90;;;;;;5049194;28;20442;-51
2021/12/26 07:32:00;;;;;;;1.70;1.60;;;1.70;99.90;;;;;;5044146;28;20572;-50
2021/12/26 07:34:27;;;;;;;15.87;10.60;;;1.70;99.90;;;;;;5041566;28;20466;-48
2021/12/26 07:36:53;;;;;;;2.40;2.20;;;1.60;99.90;;;;;;5048801;28;20474;-52
2021/12/26 07:39:20;;;;;;;2.70;2.00;;;1.40;99.90;;;;;;5050962;28;20920;-50
2021/12/26 07:41:47;;;;;;;2.13;1.93;;;1.30;99.90;;;;;;5045539;28;20505;-50
2021/12/26 07:44:14;;;;;;;2.50;1.77;;;1.40;99.90;;;;;;5040464;28;20484;-50
2021/12/26 07:46:43;;;;;;;30.57;17.37;;;1.50;99.90;;;;;;5041765;28;20512;-50
2021/12/26 07:49:10;;;;;;;23.07;15.63;;;1.60;99.90;;;;;;5042451;28;20530;-49
2021/12/26 07:51:37;;;;;;;19.77;14.50;;;1.60;99.90;;;;;;5049813;28;20499;-51
2021/12/26 07:54:04;;;;;;;14.10;11.23;;;1.30;99.90;;;;;;5061531;28;20481;-50
2021/12/26 07:56:31;;;;;;;5.63;5.03;;;1.50;99.90;;;;;;5054916;28;20925;-53
2021/12/26 07:58:59;;;;;;;5.57;4.13;;;1.40;99.90;;;;;;5051574;28;20560;-49
2021/12/26 08:01:28;;;;;;;6.30;4.20;;;1.30;99.90;;;;;;5060383;28;20508;-53
2021/12/26 08:03:56;;;;;;;8.07;7.00;;;1.30;99.90;;;;;;5062772;28;20472;-52
2021/12/26 08:06:24;;;;;;;19.60;12.53;;;1.40;99.90;;;;;;5052678;28;20481;-52
2021/12/26 08:08:51;;;;;;;32.27;21.10;;;1.50;99.90;;;;;;5066374;28;20540;-50
2021/12/26 08:11:18;;;;;;;14.30;12.80;;;1.60;99.90;;;;;;5059408;28;20553;-52
2021/12/26 08:13:45;;;;;;;15.20;10.97;;;1.60;99.90;;;;;;5051750;28;20546;-50
2021/12/26 08:16:12;;;;;;;23.60;16.43;;;1.60;99.90;;;;;;5049308;28;20518;-50
2021/12/26 08:18:39;;;;;;;13.20;9.87;;;1.60;99.90;;;;;;5054539;28;20949;-50
2021/12/26 08:21:08;;;;;;;9.30;7.20;;;1.40;99.90;;;;;;5049864;28;20492;-51
2021/12/26 08:23:35;;;;;;;6.37;5.70;;;1.30;99.90;;;;;;5061750;28;20526;-52
2021/12/26 08:26:03;;;;;;;6.90;6.20;;;1.30;99.90;;;;;;5053047;28;20524;-50
2021/12/26 08:28:30;;;;;;;16.53;11.57;;;1.50;99.90;;;;;;5052527;28;20445;-50
2021/12/26 08:30:57;;;;;;;18.57;13.53;;;1.50;99.90;;;;;;5062434;28;20512;-52
2021/12/26 08:33:24;;;;;;;16.03;12.87;;;1.60;99.90;;;;;;5050418;28;20465;-50
2021/12/26 08:35:51;;;;;;;13.40;12.00;;;1.70;99.90;;;;;;5042596;28;20477;-52
2021/12/26 08:38:21;;;;;;;15.50;12.23;;;1.80;99.90;;;;;;5043607;28;20477;-51
2021/12/26 08:40:49;;;;;;;12.87;10.33;;;1.80;99.90;;;;;;5047402;28;20469;-50
2021/12/26 08:43:16;;;;;;;27.20;24.40;;;1.80;99.90;;;;;;5045613;28;20453;-50
2021/12/26 08:45:43;;;;;;;22.13;17.90;;;1.80;99.90;;;;;;5045406;28;20884;-50
2021/12/26 08:48:10;;;;;;;14.50;12.80;;;1.80;99.90;;;;;;5047087;28;20733;-53
2021/12/26 08:50:37;;;;;;;12.30;11.07;;;1.80;99.90;;;;;;5056049;28;20477;-51
2021/12/26 08:53:05;;;;;;;19.83;17.17;;;1.90;99.90;;;;;;5046340;28;20533;-50
2021/12/26 08:55:33;;;;;;;19.50;17.40;;;1.80;99.90;;;;;;5049283;28;21013;-49
2021/12/26 08:58:00;;;;;;;12.60;11.30;;;1.90;99.90;;;;;;5044953;28;20552;-50
2021/12/26 09:00:29;;;;;;;12.90;10.70;;;1.90;99.90;;;;;;5048881;28;20480;-49
2021/12/26 09:02:56;;;;;;;10.77;9.70;;;2.00;99.90;;;;;;5045409;28;20504;-50
2021/12/26 09:05:23;;;;;;;12.87;11.00;;;2.00;99.90;;;;;;5048715;28;20895;-52
2021/12/26 09:07:50;;;;;;;9.27;8.30;;;2.10;99.90;;;;;;5046282;28;20529;-52
2021/12/26 09:10:18;;;;;;;10.63;9.50;;;2.10;99.90;;;;;;5041869;28;20536;-50
2021/12/26 09:12:46;;;;;;;11.00;9.87;;;2.10;99.90;;;;;;5045707;28;20505;-50
2021/12/26 09:15:14;;;;;;;14.13;11.13;;;2.10;99.90;;;;;;5045477;28;20524;-48
2021/12/26 09:17:42;;;;;;;20.67;18.67;;;2.10;99.90;;;;;;5045338;28;20843;-50
2021/12/26 09:20:11;;;;;;;16.20;14.27;;;2.00;99.90;;;;;;5044893;28;20566;-50
2021/12/26 09:22:39;;;;;;;11.03;9.87;;;2.00;99.90;;;;;;5048261;28;20905;-50
2021/12/26 09:25:06;;;;;;;15.80;13.80;;;2.00;99.90;;;;;;5048207;28;20944;-51
2021/12/26 09:27:33;;;;;;;14.60;13.10;;;2.00;99.90;;;;;;5047666;28;20541;-50
2021/12/26 09:30:02;;;;;;;11.30;10.20;;;2.10;99.90;;;;;;5048295;28;20473;-51
2021/12/26 09:32:29;;;;;;;12.70;11.43;;;2.10;99.90;;;;;;5044702;28;20500;-52
2021/12/26 09:34:56;;;;;;;13.53;12.07;;;2.20;99.90;;;;;;5046199;28;20520;-50
2021/12/26 09:37:23;;;;;;;11.93;10.80;;;2.20;99.90;;;;;;5044488;28;21000;-52
2021/12/26 09:39:50;;;;;;;10.20;9.13;;;2.10;99.90;;;;;;5043440;28;20559;-50
2021/12/26 09:42:17;;;;;;;8.27;6.97;;;1.90;99.90;;;;;;5043433;28;20477;-51
2021/12/26 09:44:44;;;;;;;9.20;8.30;;;1.80;99.90;;;;;;5043182;28;20548;-52
2021/12/26 09:47:14;;;;;;;8.40;7.00;;;1.90;99.90;;;;;;5045821;28;20536;-52
2021/12/26 09:49:41;;;;;;;10.37;7.20;;;1.90;99.90;;;;;;5041960;28;20526;-52
2021/12/26 09:52:09;;;;;;;10.60;9.60;;;2.10;99.90;;;;;;5047296;28;20548;-51
2021/12/26 09:54:37;;;;;;;13.40;11.13;;;2.10;99.90;;;;;;5048948;28;20884;-51
2021/12/26 09:57:05;;;;;;;11.40;8.53;;;2.20;99.90;;;;;;5049359;28;20468;-50
2021/12/26 09:59:32;;;;;;;8.80;7.80;;;2.00;99.90;;;;;;5046536;28;20488;-50
2021/12/26 10:02:08;;;;;;;9.07;7.60;;;2.10;99.90;;;;;;5045346;28;20556;-50
2021/12/26 10:04:38;;;;;;;7.90;7.10;;;2.20;99.90;;;;;;5049402;28;20522;-50
2021/12/26 10:07:09;;;;;;;9.07;7.73;;;2.30;99.90;;;;;;5047699;28;20536;-50
2021/12/26 10:09:38;;;;;;;8.03;6.23;;;2.30;99.90;;;;;;5051561;28;20532;-50
2021/12/26 10:12:06;;;;;;;6.10;4.70;;;2.10;99.90;;;;;;5046178;28;20548;-52
2021/12/26 10:14:38;;;;;;;4.50;4.07;;;2.10;99.90;;;;;;5048495;28;20541;-51
2021/12/26 10:17:07;;;;;;;5.30;4.07;;;2.10;99.90;;;;;;5043930;28;20451;-49
2021/12/26 10:19:38;;;;;;;5.37;3.80;;;2.20;99.90;;;;;;5047344;28;20861;-51
2021/12/26 10:22:07;;;;;;;10.00;9.07;;;2.30;99.90;;;;;;5045462;28;20556;-51
2021/12/26 10:24:36;;;;;;;13.17;9.13;;;2.30;99.90;;;;;;5046041;28;20485;-51
2021/12/26 10:27:06;;;;;;;8.87;7.07;;;2.20;99.90;;;;;;5045345;28;20473;-50
2021/12/26 10:29:37;;;;;;;7.40;6.80;;;2.20;99.90;;;;;;5046078;28;20977;-50
2021/12/26 10:32:08;;;;;;;7.97;7.27;;;2.30;99.90;;;;;;5043657;28;20473;-51
2021/12/26 10:34:40;;;;;;;9.60;8.70;;;2.30;99.90;;;;;;5048101;28;20524;-50
2021/12/26 10:37:12;;;;;;;13.13;11.80;;;2.40;99.90;;;;;;5052007;28;20632;-51
2021/12/26 10:39:42;;;;;;;10.90;9.47;;;2.60;99.90;;;;;;5056801;28;20985;-51
2021/12/26 10:42:16;;;;;;;12.93;10.83;;;2.40;99.90;;;;;;5068135;22;20480;-56
2021/12/26 10:44:45;;;;;;;9.30;8.40;;;2.30;99.90;;;;;;5071919;28;20444;-56
2021/12/26 10:47:13;;;;;;;11.60;9.87;;;2.20;99.90;;;;;;5076311;28;20460;-56
2021/12/26 10:49:49;;;;;;;11.20;10.10;;;2.20;99.90;;;;;;5078937;28;20448;-56
2021/12/26 10:52:22;;;;;;;8.60;7.73;;;2.30;99.90;;;;;;5072934;28;20472;-56
2021/12/26 10:54:58;;;;;;;11.73;9.07;;;2.40;99.90;;;;;;5082047;28;20447;-56
2021/12/26 10:57:29;;;;;;;9.30;7.23;;;2.40;99.90;;;;;;5081033;28;20530;-56
2021/12/26 11:00:11;;;;;;;7.87;6.73;;;2.40;99.90;;;;;;5067158;28;20562;-56
2021/12/26 11:02:41;;;;;;;7.67;6.53;;;2.40;99.90;;;;;;5071708;28;20464;-56
2021/12/26 11:05:12;;;;;;;11.17;9.00;;;2.50;99.90;;;;;;5079711;28;20432;-55
2021/12/26 11:07:49;;;;;;;12.57;11.33;;;2.60;99.90;;;;;;5070541;28;20529;-55
2021/12/26 11:10:20;;;;;;;13.73;10.83;;;2.70;99.90;;;;;;5073805;28;20468;-55
2021/12/26 11:12:49;;;;;;;13.93;12.57;;;2.70;99.90;;;;;;5073848;28;20903;-54
2021/12/26 11:15:17;;;;;;;14.43;12.90;;;2.80;99.90;;;;;;5070417;28;20528;-56
2021/12/26 11:17:49;;;;;;;11.30;10.10;;;2.70;99.90;;;;;;5072361;28;20476;-56
2021/12/26 11:20:39;;;;;;;12.03;9.33;;;2.70;99.90;;;;;;5078935;28;20516;-56
2021/12/26 11:23:12;;;;;;;8.13;7.27;;;2.70;99.90;;;;;;5070117;28;20499;-56
2021/12/26 11:25:41;;;;;;;8.33;7.50;;;2.70;99.90;;;;;;5074050;28;21007;-56
2021/12/26 11:28:10;;;;;;;12.30;11.10;;;2.70;99.90;;;;;;5064107;28;20445;-56
2021/12/26 11:30:37;;;;;;;11.10;9.33;;;2.80;99.90;;;;;;5070707;28;20880;-56
2021/12/26 11:33:05;;;;;;;9.00;8.20;;;2.80;99.90;;;;;;5068373;28;20575;-56
2021/12/26 11:35:33;;;;;;;10.27;9.37;;;2.80;99.90;;;;;;5073068;28;20728;-56
2021/12/26 11:38:03;;;;;;;10.70;9.70;;;2.90;99.90;;;;;;5072535;28;20471;-56
2021/12/26 11:40:30;;;;;;;11.70;9.83;;;2.80;99.90;;;;;;5071410;28;20510;-55
2021/12/26 11:43:44;;;;;;;11.53;10.47;;;2.80;99.90;;;;;;5074531;28;20499;-55
2021/12/26 11:46:21;;;;;;;12.10;11.00;;;2.90;99.90;;;;;;5077751;28;20948;-55
2021/12/26 11:49:16;;;;;;;10.63;9.63;;;3.00;99.90;;;;;;5072926;28;20469;-55
2021/12/26 11:52:06;;;;;;;9.50;8.60;;;3.10;99.90;;;;;;5053885;28;21064;-55
2021/12/26 11:54:50;;;;;;;9.33;8.50;;;3.10;99.90;;;;;;5071313;28;20523;-55
2021/12/26 11:57:52;;;;;;;10.43;9.20;;;3.00;99.90;;;;;;5072873;28;20523;-56
2021/12/26 12:00:26;;;;;;;9.67;8.50;;;2.80;99.90;;;;;;5071122;28;20562;-55
2021/12/26 12:02:55;;;;;;;11.77;9.53;;;2.80;99.90;;;;;;5068534;28;20988;-55
2021/12/26 12:05:25;;;;;;;13.00;11.57;;;2.80;99.90;;;;;;5070147;28;20527;-55
2021/12/26 12:07:56;;;;;;;16.43;12.73;;;2.90;99.90;;;;;;5067932;28;20471;-55
2021/12/26 12:10:36;;;;;;;13.80;12.30;;;2.90;99.90;;;;;;5075429;28;20876;-55
2021/12/26 12:13:05;;;;;;;14.40;12.20;;;2.90;99.90;;;;;;5072478;28;21004;-55
2021/12/26 12:15:44;;;;;;;12.97;11.80;;;2.90;99.90;;;;;;5070493;28;20505;-55
2021/12/26 12:18:13;;;;;;;13.50;11.00;;;3.00;99.90;;;;;;5068841;28;20476;-55
2021/12/26 12:20:40;;;;;;;13.97;11.87;;;3.00;99.90;;;;;;5073921;28;20480;-55
2021/12/26 12:23:27;;;;;;;13.10;11.80;;;3.10;99.90;;;;;;5074023;28;20854;-56
2021/12/26 12:25:56;;;;;;;12.40;10.83;;;3.10;99.90;;;;;;5066738;28;20502;-56
2021/12/26 12:28:31;;;;;;;14.73;11.30;;;3.10;99.90;;;;;;5073526;28;20475;-56
2021/12/26 12:31:14;;;;;;;12.53;10.33;;;3.10;99.90;;;;;;5069188;28;20523;-56
2021/12/26 12:33:41;;;;;;;10.80;9.70;;;3.20;99.90;;;;;;5072272;28;20546;-56
2021/12/26 12:36:11;;;;;;;9.40;8.37;;;3.20;99.90;;;;;;5068312;28;20481;-56
2021/12/26 12:38:40;;;;;;;10.60;9.60;;;3.20;99.90;;;;;;5073772;28;20800;-56
2021/12/26 12:41:35;;;;;;;10.07;9.00;;;3.20;99.90;;;;;;5068623;28;20539;-56
2021/12/26 12:44:06;;;;;;;10.70;9.60;;;3.20;99.90;;;;;;5069801;28;20451;-55
2021/12/26 12:46:52;;;;;;;10.50;8.10;;;3.10;99.90;;;;;;5072650;28;20446;-56
2021/12/26 12:49:20;;;;;;;16.97;12.30;;;3.00;99.90;;;;;;5069515;28;20941;-55
2021/12/26 12:51:49;;;;;;;9.30;8.37;;;3.00;99.90;;;;;;5070848;28;20526;-55
2021/12/26 12:54:30;;;;;;;11.30;10.00;;;3.00;99.90;;;;;;5070353;28;20464;-56
2021/12/26 12:57:00;;;;;;;10.90;9.90;;;3.00;99.90;;;;;;5070110;28;20537;-56
2021/12/26 12:59:36;;;;;;;10.17;9.17;;;3.00;99.90;;;;;;5074043;28;20476;-56
2021/12/26 13:02:06;;;;;;;10.67;9.67;;;3.10;99.90;;;;;;5082366;28;20515;-54
2021/12/26 13:04:43;;;;;;;12.03;10.80;;;3.20;99.90;;;;;;5063279;28;20589;-56